Time;durP1;ratioP1;P1;durP2;ratioP2;P2;SDS_P1;SDS_P2;PMS_P1;PMS_P2;Temp;Humidity;BMP_temperature;BMP_pressure;BME280_temperature;BME280_humidity;BME280_pressure;Samples;Min_cycle;Max_cycle;Signal;HPM_P1;HPM_P2
2022/04/13 00:01:35;;;;;;;27.30;15.05;;;28.90;79.90;;;;;;5132496;28;20027;-48
2022/04/13 00:04:01;;;;;;;26.17;15.30;;;28.90;79.80;;;;;;5129906;28;20241;-49
2022/04/13 00:06:28;;;;;;;24.55;14.10;;;28.90;79.70;;;;;;5130340;28;20028;-50
2022/04/13 00:08:55;;;;;;;22.60;14.07;;;28.90;79.70;;;;;;5130793;28;20082;-44
2022/04/13 00:11:23;;;;;;;21.63;14.20;;;28.80;79.50;;;;;;5144425;28;20031;-47
2022/04/13 00:13:49;;;;;;;22.15;15.98;;;28.80;79.40;;;;;;5131270;28;20016;-49
2022/04/13 00:16:17;;;;;;;27.95;17.63;;;28.80;79.60;;;;;;5133267;28;20192;-52
2022/04/13 00:18:44;;;;;;;32.30;17.58;;;28.80;79.70;;;;;;5123850;28;20366;-54
2022/04/13 00:21:10;;;;;;;27.80;15.13;;;28.70;79.30;;;;;;5135513;28;20068;-54
2022/04/13 00:23:37;;;;;;;25.92;13.73;;;28.70;79.40;;;;;;5130001;28;20098;-55
2022/04/13 00:26:03;;;;;;;26.95;14.93;;;28.70;79.10;;;;;;5123679;28;20049;-58
2022/04/13 00:28:30;;;;;;;22.23;14.43;;;28.60;79.10;;;;;;5128749;28;20089;-55
2022/04/13 00:30:57;;;;;;;21.98;13.77;;;28.60;79.40;;;;;;5134441;28;20019;-54
2022/04/13 00:33:24;;;;;;;24.23;14.35;;;28.60;79.40;;;;;;5126149;28;20180;-56
2022/04/13 00:35:53;;;;;;;23.67;14.27;;;28.50;79.10;;;;;;5123511;28;20040;-54
2022/04/13 00:38:21;;;;;;;23.63;14.32;;;28.60;79.40;;;;;;5123725;28;20026;-55
2022/04/13 00:40:49;;;;;;;22.60;14.32;;;28.50;79.60;;;;;;5133317;28;20083;-55
2022/04/13 00:43:16;;;;;;;23.20;15.30;;;28.40;79.80;;;;;;5127211;28;20034;-55
2022/04/13 00:45:46;;;;;;;23.60;14.35;;;28.40;79.90;;;;;;5127289;28;20383;-55
2022/04/13 00:48:29;;;;;;;26.10;14.65;;;28.40;79.80;;;;;;5127572;28;20066;-57
2022/04/13 00:50:56;;;;;;;21.63;14.05;;;28.40;79.60;;;;;;5127144;28;20032;-59
2022/04/13 00:53:24;;;;;;;24.33;14.45;;;28.30;79.50;;;;;;5127366;28;20059;-55
2022/04/13 00:55:55;;;;;;;21.40;13.13;;;28.40;79.10;;;;;;5127498;28;20381;-55
2022/04/13 00:58:29;;;;;;;26.23;14.98;;;28.40;79.30;;;;;;5127489;28;20028;-52
2022/04/13 01:00:57;;;;;;;24.10;14.88;;;28.40;79.30;;;;;;5126773;28;20207;-54
2022/04/13 01:03:25;;;;;;;26.77;15.70;;;28.40;79.50;;;;;;5131963;27;20030;-58
2022/04/13 01:05:53;;;;;;;22.40;16.05;;;28.40;78.80;;;;;;5142397;27;20042;-56
2022/04/13 01:08:21;;;;;;;23.35;15.15;;;28.30;78.90;;;;;;5147766;27;20023;-53
2022/04/13 01:10:49;;;;;;;18.92;15.07;;;28.30;79.10;;;;;;5147656;27;20059;-55
2022/04/13 01:13:17;;;;;;;24.80;15.55;;;28.30;78.20;;;;;;5148024;27;20090;-55
2022/04/13 01:15:44;;;;;;;23.90;15.00;;;28.30;77.30;;;;;;5147170;27;20019;-57
2022/04/13 01:18:13;;;;;;;24.00;14.32;;;28.30;77.20;;;;;;5141083;27;20181;-53
2022/04/13 01:20:51;;;;;;;20.02;13.98;;;28.30;76.90;;;;;;5134344;27;20312;-54
2022/04/13 01:23:19;;;;;;;21.27;13.52;;;28.30;76.50;;;;;;5127098;28;20038;-55
2022/04/13 01:25:50;;;;;;;20.77;12.90;;;28.30;76.50;;;;;;5126674;28;20038;-57
2022/04/13 01:28:17;;;;;;;18.63;13.90;;;28.20;76.40;;;;;;5126889;28;20068;-51
2022/04/13 01:30:44;;;;;;;23.60;14.20;;;28.30;76.30;;;;;;5132878;27;20038;-56
2022/04/13 01:33:11;;;;;;;19.60;13.45;;;28.30;76.10;;;;;;5136710;27;20042;-54
2022/04/13 01:35:39;;;;;;;21.98;12.95;;;28.30;75.80;;;;;;5138660;27;20212;-53
2022/04/13 01:38:06;;;;;;;18.50;12.85;;;28.20;75.80;;;;;;5147347;27;20023;-56
2022/04/13 01:40:33;;;;;;;21.33;13.85;;;28.20;75.80;;;;;;5147021;27;20335;-58
2022/04/13 01:43:00;;;;;;;17.48;13.10;;;28.20;75.70;;;;;;5147198;27;20230;-54
2022/04/13 01:45:26;;;;;;;19.92;13.77;;;28.20;75.70;;;;;;5146998;27;20074;-53
2022/04/13 01:47:54;;;;;;;39.67;15.65;;;28.20;75.70;;;;;;5147391;27;20026;-52
2022/04/13 01:50:21;;;;;;;32.28;13.55;;;28.20;75.30;;;;;;5146321;27;20023;-55
2022/04/13 01:52:48;;;;;;;22.40;13.75;;;28.20;74.80;;;;;;5147056;27;20027;-52
2022/04/13 01:55:15;;;;;;;25.92;13.40;;;28.20;74.90;;;;;;5145661;27;20299;-53
2022/04/13 01:58:33;;;;;;;25.90;13.45;;;28.20;74.90;;;;;;5146931;27;20054;-53
2022/04/13 02:05:07;;;;;;;20.58;12.93;;;28.10;74.30;;;;;;5146345;27;20228;-56
2022/04/13 02:07:34;;;;;;;19.08;13.15;;;28.10;74.10;;;;;;5143232;27;20039;-51
2022/04/13 02:10:00;;;;;;;21.85;13.88;;;28.20;74.20;;;;;;5132064;27;20031;-50
2022/04/13 02:12:27;;;;;;;23.52;13.43;;;28.20;74.00;;;;;;5135752;27;20042;-53
2022/04/13 02:14:54;;;;;;;20.42;13.88;;;28.20;74.10;;;;;;5135532;27;20020;-56
2022/04/13 02:17:21;;;;;;;19.73;14.50;;;28.20;74.30;;;;;;5128544;27;20034;-51
2022/04/13 02:19:47;;;;;;;20.42;14.75;;;28.20;74.20;;;;;;5125424;28;20024;-49
2022/04/13 02:22:14;;;;;;;23.00;13.70;;;28.20;74.20;;;;;;5125597;28;20291;-47
2022/04/13 02:24:41;;;;;;;23.50;13.18;;;28.20;74.10;;;;;;5125563;28;20342;-47
2022/04/13 02:27:09;;;;;;;17.15;12.77;;;28.20;73.70;;;;;;5125825;28;20104;-50
2022/04/13 02:29:37;;;;;;;19.10;12.98;;;28.30;74.00;;;;;;5125161;28;20080;-50
2022/04/13 02:32:05;;;;;;;18.98;12.73;;;28.30;73.50;;;;;;5125595;28;20069;-47
2022/04/13 02:34:32;;;;;;;18.30;12.57;;;28.30;73.60;;;;;;5125122;28;20011;-48
2022/04/13 02:36:59;;;;;;;22.30;13.45;;;28.30;73.90;;;;;;5125386;28;20069;-47
2022/04/13 02:39:26;;;;;;;20.77;13.57;;;28.30;73.70;;;;;;5125241;28;20069;-47
2022/04/13 02:41:52;;;;;;;19.55;13.20;;;28.30;74.00;;;;;;5125170;28;20034;-50
2022/04/13 02:44:19;;;;;;;39.42;35.20;;;28.30;73.70;;;;;;5125124;28;20035;-47
2022/04/13 02:46:45;;;;;;;54.03;48.40;;;28.30;74.00;;;;;;5125236;28;20095;-53
2022/04/13 02:49:12;;;;;;;102.38;92.40;;;28.30;74.70;;;;;;5124970;28;20049;-50
2022/04/13 02:51:39;;;;;;;49.65;44.47;;;28.30;74.60;;;;;;5125292;28;20035;-47
2022/04/13 02:54:06;;;;;;;30.42;27.13;;;28.20;74.10;;;;;;5125082;28;20107;-47
2022/04/13 02:56:33;;;;;;;28.63;23.10;;;28.30;74.20;;;;;;5124893;28;20015;-50
2022/04/13 02:59:02;;;;;;;30.65;20.13;;;28.20;73.90;;;;;;5129800;27;20090;-52
2022/04/13 03:01:29;;;;;;;21.33;17.05;;;28.20;73.70;;;;;;5145496;27;20019;-48
2022/04/13 03:03:55;;;;;;;25.92;16.75;;;28.30;73.90;;;;;;5145355;27;20015;-47
2022/04/13 03:06:22;;;;;;;22.17;16.08;;;28.20;73.50;;;;;;5144996;27;20019;-50
2022/04/13 03:08:49;;;;;;;17.15;15.30;;;28.20;73.80;;;;;;5145202;27;20404;-47
2022/04/13 03:11:16;;;;;;;20.50;14.98;;;28.20;73.50;;;;;;5145211;27;20026;-48
2022/04/13 03:13:43;;;;;;;19.60;14.48;;;28.20;73.50;;;;;;5145273;27;20368;-46
2022/04/13 03:16:10;;;;;;;24.08;14.50;;;28.20;73.50;;;;;;5145412;27;20304;-49
2022/04/13 03:18:36;;;;;;;21.05;14.27;;;28.20;73.40;;;;;;5145647;27;20303;-45
2022/04/13 03:21:03;;;;;;;18.20;13.60;;;28.20;73.10;;;;;;5145132;27;20368;-49
2022/04/13 03:23:30;;;;;;;18.85;13.43;;;28.20;73.50;;;;;;5145682;27;20049;-51
2022/04/13 03:25:56;;;;;;;22.23;13.32;;;28.20;73.10;;;;;;5145237;27;20188;-47
2022/04/13 03:28:23;;;;;;;19.83;12.73;;;28.20;72.80;;;;;;5145335;27;20026;-50
2022/04/13 03:30:52;;;;;;;16.15;13.05;;;28.20;72.80;;;;;;5144894;27;20303;-46
2022/04/13 03:33:19;;;;;;;18.27;13.55;;;28.20;73.00;;;;;;5145395;27;20113;-49
2022/04/13 03:35:45;;;;;;;36.75;33.10;;;28.10;73.00;;;;;;5144808;28;20083;-45
2022/04/13 03:38:12;;;;;;;42.97;38.60;;;28.10;73.30;;;;;;5136073;28;20027;-53
2022/04/13 03:40:38;;;;;;;35.08;31.30;;;28.10;73.30;;;;;;5140913;28;20060;-45
2022/04/13 03:43:05;;;;;;;27.70;23.52;;;28.00;73.20;;;;;;5145234;28;20016;-47
2022/04/13 03:45:32;;;;;;;23.95;20.83;;;28.10;73.30;;;;;;5144981;28;20011;-52
2022/04/13 03:47:58;;;;;;;24.95;18.25;;;28.10;73.30;;;;;;5145240;28;20219;-47
2022/04/13 03:50:25;;;;;;;22.05;17.88;;;28.00;73.60;;;;;;5141899;28;20019;-49
2022/04/13 03:52:51;;;;;;;24.13;17.42;;;28.00;73.20;;;;;;5126825;28;20249;-53
2022/04/13 03:55:22;;;;;;;21.00;15.73;;;28.00;73.10;;;;;;5133255;28;20030;-50
2022/04/13 03:57:52;;;;;;;22.67;15.95;;;28.00;72.80;;;;;;5124465;28;20237;-49
2022/04/13 04:00:19;;;;;;;19.83;15.27;;;28.10;73.00;;;;;;5124225;28;20020;-49
2022/04/13 04:02:45;;;;;;;20.88;14.38;;;28.00;73.20;;;;;;5124542;28;20027;-53
2022/04/13 04:05:12;;;;;;;16.88;14.57;;;28.10;72.80;;;;;;5124003;28;20016;-48
2022/04/13 04:07:40;;;;;;;17.30;13.65;;;28.10;73.00;;;;;;5127180;28;20028;-47
2022/04/13 04:10:07;;;;;;;16.38;14.02;;;28.10;73.20;;;;;;5123946;28;20069;-54
2022/04/13 04:12:39;;;;;;;20.30;13.60;;;28.00;73.00;;;;;;5124136;28;20030;-46
2022/04/13 04:15:06;;;;;;;16.80;12.90;;;28.00;72.80;;;;;;5137783;28;20023;-56
2022/04/13 04:17:33;;;;;;;18.02;13.25;;;28.00;73.10;;;;;;5134419;27;20318;-47
2022/04/13 04:19:59;;;;;;;17.40;13.18;;;28.00;72.60;;;;;;5127983;28;20064;-51
2022/04/13 04:22:26;;;;;;;17.88;12.93;;;28.00;72.70;;;;;;5128243;28;20299;-46
2022/04/13 04:24:53;;;;;;;18.10;12.77;;;28.00;72.60;;;;;;5127949;28;20030;-47
2022/04/13 04:27:20;;;;;;;18.70;12.80;;;28.00;72.70;;;;;;5128056;28;20023;-46
2022/04/13 04:29:47;;;;;;;16.73;12.45;;;28.00;73.10;;;;;;5128001;28;20031;-44
2022/04/13 04:32:14;;;;;;;20.33;11.82;;;28.00;72.90;;;;;;5127787;28;20099;-48
2022/04/13 04:34:40;;;;;;;16.77;12.40;;;28.00;72.70;;;;;;5127868;28;20015;-44
2022/04/13 04:37:07;;;;;;;17.88;11.95;;;28.00;72.90;;;;;;5127795;28;20326;-47
2022/04/13 04:39:33;;;;;;;16.92;12.23;;;28.00;73.00;;;;;;5127666;28;20024;-49
2022/04/13 04:42:02;;;;;;;17.25;12.43;;;27.90;72.70;;;;;;5127615;28;20054;-46
2022/04/13 04:44:28;;;;;;;17.20;12.02;;;27.90;72.80;;;;;;5127761;28;20138;-52
2022/04/13 04:46:55;;;;;;;16.25;12.15;;;28.00;72.90;;;;;;5127563;28;20094;-53
2022/04/13 04:49:22;;;;;;;18.45;11.95;;;27.90;73.00;;;;;;5131856;27;20023;-50
2022/04/13 04:51:48;;;;;;;18.45;12.40;;;27.90;72.80;;;;;;5139060;27;20056;-47
2022/04/13 04:54:15;;;;;;;19.15;12.18;;;27.90;73.40;;;;;;5147721;27;20102;-54
2022/04/13 04:56:41;;;;;;;15.93;12.38;;;27.90;73.10;;;;;;5147773;27;20030;-45
2022/04/13 04:59:10;;;;;;;22.10;12.57;;;27.90;72.90;;;;;;5147772;27;20047;-50
2022/04/13 05:01:37;;;;;;;16.83;12.20;;;27.90;73.10;;;;;;5147773;27;20027;-47
2022/04/13 05:04:03;;;;;;;16.27;11.93;;;27.90;72.50;;;;;;5147647;27;20047;-53
2022/04/13 05:06:31;;;;;;;18.23;11.57;;;27.90;72.30;;;;;;5147596;27;20019;-48
2022/04/13 05:08:57;;;;;;;15.88;11.80;;;27.90;72.60;;;;;;5147450;27;20253;-48
2022/04/13 05:11:24;;;;;;;16.45;11.90;;;27.90;72.40;;;;;;5147475;27;20066;-46
2022/04/13 05:13:51;;;;;;;17.30;11.50;;;27.90;72.60;;;;;;5147892;27;20046;-52
2022/04/13 05:16:20;;;;;;;14.93;11.73;;;27.90;72.60;;;;;;5147437;27;20015;-50
2022/04/13 05:18:47;;;;;;;15.57;11.57;;;27.90;72.50;;;;;;5147482;27;20086;-51
2022/04/13 05:21:14;;;;;;;19.45;12.25;;;27.90;72.40;;;;;;5147963;27;20015;-53
2022/04/13 05:23:44;;;;;;;18.15;12.23;;;28.00;72.30;;;;;;5147678;27;20019;-49
2022/04/13 05:26:11;;;;;;;18.50;11.57;;;27.90;72.60;;;;;;5147168;27;20023;-47
2022/04/13 05:28:38;;;;;;;15.13;11.35;;;27.90;72.50;;;;;;5147176;27;20035;-52
2022/04/13 05:31:05;;;;;;;18.77;12.27;;;27.90;72.60;;;;;;5147270;27;20266;-49
2022/04/13 05:33:32;;;;;;;19.17;12.07;;;27.90;72.50;;;;;;5147519;27;20090;-51
2022/04/13 05:35:59;;;;;;;18.50;11.93;;;27.90;72.50;;;;;;5147487;27;20268;-47
2022/04/13 05:38:25;;;;;;;16.80;12.32;;;27.90;72.60;;;;;;5147124;27;20315;-48
2022/04/13 05:40:52;;;;;;;17.05;12.05;;;27.90;72.30;;;;;;5147035;27;20330;-50
2022/04/13 05:43:18;;;;;;;16.92;11.60;;;27.90;72.60;;;;;;5147914;27;20023;-50
2022/04/13 05:45:45;;;;;;;16.23;11.77;;;27.90;72.60;;;;;;5147207;27;20023;-49
2022/04/13 05:48:11;;;;;;;15.65;12.07;;;27.90;72.60;;;;;;5147630;27;20019;-49
2022/04/13 05:50:38;;;;;;;17.88;12.00;;;27.90;72.70;;;;;;5146997;27;20055;-46
2022/04/13 05:53:05;;;;;;;20.10;12.15;;;27.90;72.40;;;;;;5147672;27;20047;-49
2022/04/13 05:55:32;;;;;;;16.42;11.40;;;27.90;72.60;;;;;;5146712;27;20057;-51
2022/04/13 05:57:58;;;;;;;16.33;11.70;;;27.80;73.00;;;;;;5147431;27;20030;-51
2022/04/13 06:00:25;;;;;;;17.80;11.77;;;27.90;73.00;;;;;;5146561;27;20039;-52
2022/04/13 06:02:52;;;;;;;16.77;11.68;;;27.90;73.20;;;;;;5147020;27;20018;-50
2022/04/13 06:05:21;;;;;;;19.65;12.80;;;27.80;73.20;;;;;;5147203;27;20027;-48
2022/04/13 06:07:47;;;;;;;20.20;12.95;;;27.80;73.60;;;;;;5146827;27;20019;-52
2022/04/13 06:10:15;;;;;;;18.35;12.48;;;27.80;74.00;;;;;;5146543;27;20357;-54
2022/04/13 06:12:41;;;;;;;18.05;12.05;;;27.80;73.70;;;;;;5147246;27;20022;-56
2022/04/13 06:15:10;;;;;;;16.50;13.38;;;27.80;73.90;;;;;;5146897;27;20043;-49
2022/04/13 06:17:37;;;;;;;17.58;12.55;;;27.80;74.30;;;;;;5146907;27;20026;-52
2022/04/13 06:20:05;;;;;;;20.92;12.80;;;27.80;74.00;;;;;;5146674;27;20053;-46
2022/04/13 06:22:36;;;;;;;15.32;12.30;;;27.80;73.70;;;;;;5146725;27;20319;-48
2022/04/13 06:25:04;;;;;;;18.17;13.35;;;27.80;74.10;;;;;;5146417;27;20030;-52
2022/04/13 06:27:31;;;;;;;18.52;13.23;;;27.70;74.40;;;;;;5146970;27;20015;-48
2022/04/13 06:29:57;;;;;;;20.50;13.05;;;27.70;74.70;;;;;;5146409;27;20094;-49
2022/04/13 06:32:34;;;;;;;19.95;12.95;;;27.70;74.70;;;;;;5146320;27;20019;-50
2022/04/13 06:35:02;;;;;;;17.75;12.98;;;27.70;74.30;;;;;;5146011;27;20086;-48
2022/04/13 06:37:28;;;;;;;18.33;13.02;;;27.70;74.40;;;;;;5146422;27;20019;-48
2022/04/13 06:39:55;;;;;;;19.15;12.80;;;27.70;74.30;;;;;;5145751;27;20023;-48
2022/04/13 06:42:23;;;;;;;16.45;12.27;;;27.60;74.80;;;;;;5145824;27;20165;-50
2022/04/13 06:44:52;;;;;;;15.93;13.00;;;27.60;75.20;;;;;;5146080;27;20058;-49
2022/04/13 06:47:19;;;;;;;18.92;13.57;;;27.60;75.00;;;;;;5145881;27;20299;-49
2022/04/13 06:49:48;;;;;;;18.45;13.32;;;27.50;75.30;;;;;;5145616;27;20035;-47
2022/04/13 06:52:15;;;;;;;16.95;13.15;;;27.60;75.40;;;;;;5146120;27;20287;-54
2022/04/13 06:54:42;;;;;;;17.35;12.90;;;27.60;75.70;;;;;;5145557;27;20118;-48
2022/04/13 06:57:09;;;;;;;16.48;12.50;;;27.60;76.00;;;;;;5145871;27;20027;-48
2022/04/13 06:59:36;;;;;;;20.13;12.80;;;27.50;75.40;;;;;;5145738;27;20026;-48
2022/04/13 07:02:03;;;;;;;25.23;13.88;;;27.50;75.50;;;;;;5145717;27;20023;-51
2022/04/13 07:04:29;;;;;;;19.33;13.48;;;27.50;75.50;;;;;;5145943;27;20031;-52
2022/04/13 07:06:56;;;;;;;20.15;12.77;;;27.50;75.50;;;;;;5145643;27;20183;-48
2022/04/13 07:09:22;;;;;;;20.40;13.02;;;27.50;75.50;;;;;;5145691;27;20023;-49
2022/04/13 07:11:49;;;;;;;23.15;13.60;;;27.50;75.40;;;;;;5145661;27;20074;-49
2022/04/13 07:14:15;;;;;;;17.10;12.60;;;27.50;75.10;;;;;;5145360;27;20027;-53
2022/04/13 07:16:42;;;;;;;19.80;13.10;;;27.50;75.20;;;;;;5145223;27;20090;-50
2022/04/13 07:19:09;;;;;;;16.45;12.55;;;27.50;75.50;;;;;;5145141;27;20100;-47
2022/04/13 07:21:35;;;;;;;17.27;12.63;;;27.50;75.20;;;;;;5145244;27;20087;-50
2022/04/13 07:24:02;;;;;;;18.02;12.95;;;27.50;75.60;;;;;;5145020;27;20253;-47
2022/04/13 07:26:29;;;;;;;17.45;12.77;;;27.50;75.70;;;;;;5145162;27;20019;-50
2022/04/13 07:28:55;;;;;;;17.48;12.80;;;27.50;75.70;;;;;;5145288;27;20035;-49
2022/04/13 07:31:22;;;;;;;19.65;13.57;;;27.50;75.30;;;;;;5145126;27;20015;-51
2022/04/13 07:33:49;;;;;;;24.02;13.10;;;27.40;76.10;;;;;;5145153;27;20023;-52
2022/04/13 07:36:15;;;;;;;17.50;12.95;;;27.40;75.80;;;;;;5145225;27;20330;-49
2022/04/13 07:38:42;;;;;;;18.30;13.13;;;27.40;76.00;;;;;;5145112;28;20372;-47
2022/04/13 07:41:08;;;;;;;23.80;13.90;;;27.40;75.80;;;;;;5145217;28;20019;-47
2022/04/13 07:43:35;;;;;;;23.38;13.73;;;27.40;75.60;;;;;;5145798;28;20026;-49
2022/04/13 07:46:02;;;;;;;18.15;13.30;;;27.50;75.70;;;;;;5144967;28;20145;-50
2022/04/13 07:48:31;;;;;;;18.98;13.65;;;27.40;76.00;;;;;;5145484;28;20255;-49
2022/04/13 07:50:58;;;;;;;17.67;13.90;;;27.40;76.00;;;;;;5144841;28;20038;-45
2022/04/13 07:53:24;;;;;;;18.35;13.35;;;27.50;76.00;;;;;;5149426;27;20035;-53
2022/04/13 07:55:51;;;;;;;21.38;13.27;;;27.40;76.30;;;;;;5149171;27;20015;-52
2022/04/13 07:58:17;;;;;;;18.38;13.15;;;27.50;77.10;;;;;;5149609;27;20184;-52
2022/04/13 08:00:44;;;;;;;17.35;13.25;;;27.40;76.90;;;;;;5148968;27;20311;-51
2022/04/13 08:03:11;;;;;;;18.23;13.52;;;27.40;77.00;;;;;;5149802;27;20049;-54
2022/04/13 08:05:40;;;;;;;18.63;13.77;;;27.40;77.20;;;;;;5149029;27;20026;-48
2022/04/13 08:08:07;;;;;;;19.02;13.55;;;27.40;77.00;;;;;;5148902;27;20096;-48
2022/04/13 08:10:34;;;;;;;19.02;14.02;;;27.40;77.10;;;;;;5148872;27;20031;-51
2022/04/13 08:13:00;;;;;;;21.20;13.73;;;27.40;77.40;;;;;;5149246;27;20061;-52
2022/04/13 08:15:27;;;;;;;22.77;14.38;;;27.40;77.50;;;;;;5149025;27;20046;-52
2022/04/13 08:17:53;;;;;;;20.58;13.48;;;27.40;77.60;;;;;;5149230;27;20112;-55
2022/04/13 08:20:20;;;;;;;24.45;13.60;;;27.40;77.80;;;;;;5148844;27;20027;-47
2022/04/13 08:22:47;;;;;;;18.98;13.05;;;27.40;77.60;;;;;;5149187;27;20015;-50
2022/04/13 08:25:14;;;;;;;21.80;13.45;;;27.40;77.90;;;;;;5149325;27;20035;-46
2022/04/13 08:27:41;;;;;;;21.70;13.77;;;27.40;78.20;;;;;;5149138;27;20015;-47
2022/04/13 08:30:08;;;;;;;22.40;13.95;;;27.40;78.70;;;;;;5148358;27;20053;-50
2022/04/13 08:32:36;;;;;;;19.90;13.27;;;27.40;78.40;;;;;;5149033;27;20221;-48
2022/04/13 08:35:05;;;;;;;19.02;13.65;;;27.40;78.40;;;;;;5148799;27;20057;-47
2022/04/13 08:37:33;;;;;;;20.70;12.98;;;27.40;78.50;;;;;;5148770;27;20011;-49
2022/04/13 08:39:59;;;;;;;24.77;14.07;;;27.40;78.20;;;;;;5148296;27;20039;-48
2022/04/13 08:43:06;;;;;;;24.33;14.05;;;27.40;78.10;;;;;;5148513;27;20023;-48
2022/04/13 08:45:55;;;;;;;19.25;13.07;;;27.40;78.20;;;;;;5134391;27;20128;-53
2022/04/13 08:48:23;;;;;;;19.02;13.55;;;27.40;78.00;;;;;;5148420;27;20181;-53
2022/04/13 08:50:57;;;;;;;20.45;14.25;;;27.40;78.40;;;;;;5148300;27;20068;-52
2022/04/13 08:53:30;;;;;;;21.50;13.77;;;27.40;78.60;;;;;;5148180;27;20054;-52
2022/04/13 08:55:58;;;;;;;20.02;13.93;;;27.40;79.00;;;;;;5148219;27;20207;-50
2022/04/13 08:58:31;;;;;;;20.02;13.82;;;27.40;79.30;;;;;;5148935;27;20211;-49
2022/04/13 09:01:02;;;;;;;24.20;13.43;;;27.40;79.20;;;;;;5148032;27;20026;-49
2022/04/13 09:03:34;;;;;;;20.77;13.40;;;27.40;79.80;;;;;;5147855;27;20105;-52
2022/04/13 09:06:01;;;;;;;;;;;27.40;80.00;;;;;;5148436;27;20026;-51
2022/04/13 09:08:54;;;;;;;19.85;13.93;;;27.30;80.10;;;;;;5148277;27;19903;-48
2022/04/13 09:11:22;;;;;;;16.77;13.38;;;27.30;80.30;;;;;;5137507;27;20022;-51
2022/04/13 09:13:50;;;;;;;18.55;13.18;;;27.30;80.30;;;;;;5147904;27;20184;-52
2022/04/13 09:16:16;;;;;;;20.13;14.07;;;27.30;80.70;;;;;;5148148;27;20022;-56
2022/04/13 09:18:44;;;;;;;21.67;13.90;;;27.30;81.00;;;;;;5147605;27;20233;-48
2022/04/13 09:21:17;;;;;;;24.25;13.65;;;27.30;80.60;;;;;;5147638;27;20025;-47
2022/04/13 09:23:44;;;;;;;22.83;14.02;;;27.30;80.70;;;;;;5147371;27;20067;-51
2022/04/13 09:26:12;;;;;;;19.63;13.40;;;27.30;80.70;;;;;;5147923;27;20259;-50
2022/04/13 09:28:39;;;;;;;18.98;13.23;;;27.30;80.90;;;;;;5147291;27;20031;-54
2022/04/13 09:31:06;;;;;;;19.95;13.88;;;27.30;81.10;;;;;;5147595;27;20026;-51
2022/04/13 09:33:34;;;;;;;19.38;13.70;;;27.20;81.50;;;;;;5147898;27;20191;-51
2022/04/13 09:36:00;;;;;;;18.40;14.25;;;27.20;81.50;;;;;;5147603;27;20019;-49
2022/04/13 09:38:28;;;;;;;20.33;13.82;;;27.20;81.70;;;;;;5147866;27;20042;-49
2022/04/13 09:41:05;;;;;;;20.42;13.73;;;27.20;81.80;;;;;;5147692;27;20237;-51
2022/04/13 09:43:31;;;;;;;18.27;13.07;;;27.20;81.80;;;;;;5148140;27;20019;-53
2022/04/13 09:45:58;;;;;;;22.60;14.35;;;27.10;81.90;;;;;;5147001;27;20034;-52
2022/04/13 09:48:26;;;;;;;21.05;13.27;;;27.20;81.90;;;;;;5147851;27;20287;-47
2022/04/13 09:50:56;;;;;;;24.45;14.40;;;27.20;81.90;;;;;;5147282;27;20019;-51
2022/04/13 09:53:22;;;;;;;20.25;13.70;;;27.20;81.90;;;;;;5147518;27;20047;-52
2022/04/13 09:55:51;;;;;;;21.88;13.82;;;27.10;81.70;;;;;;5147020;27;20023;-48
2022/04/13 09:58:20;;;;;;;22.35;13.82;;;27.20;81.60;;;;;;5147304;27;20083;-49
2022/04/13 10:00:50;;;;;;;22.38;14.48;;;27.20;81.90;;;;;;5146729;27;20216;-52
2022/04/13 10:03:17;;;;;;;20.42;12.75;;;27.20;82.10;;;;;;5147177;27;20047;-49
2022/04/13 10:05:49;;;;;;;20.02;13.93;;;27.10;82.20;;;;;;5146658;27;20057;-50
2022/04/13 10:08:22;;;;;;;18.98;13.63;;;27.10;82.60;;;;;;5147241;27;20034;-49
2022/04/13 10:10:51;;;;;;;16.98;13.75;;;27.10;82.80;;;;;;5146539;27;20031;-50
2022/04/13 10:13:38;;;;;;;19.20;14.05;;;27.10;83.00;;;;;;5146819;27;20023;-47
2022/04/13 10:16:10;;;;;;;18.98;13.50;;;27.10;83.10;;;;;;5145532;27;20069;-49
2022/04/13 10:18:53;;;;;;;21.05;13.23;;;27.10;83.10;;;;;;5146936;27;20056;-50
2022/04/13 10:21:43;;;;;;;20.75;13.63;;;27.10;83.10;;;;;;5146329;27;20027;-49
2022/04/13 10:24:22;;;;;;;20.15;14.20;;;27.00;83.40;;;;;;5146290;27;20323;-47
2022/04/13 10:27:12;;;;;;;18.42;14.15;;;27.10;83.60;;;;;;5146594;27;20064;-48
2022/04/13 10:29:43;;;;;;;19.60;14.15;;;27.10;84.00;;;;;;5146016;27;20090;-47
2022/04/13 10:32:11;;;;;;;18.67;14.57;;;27.00;84.00;;;;;;5146496;27;20050;-51
2022/04/13 10:34:42;;;;;;;24.48;15.15;;;27.00;84.30;;;;;;5146009;27;20047;-52
2022/04/13 10:37:11;;;;;;;16.67;14.07;;;27.00;84.10;;;;;;5146166;27;20022;-49
2022/04/13 10:39:38;;;;;;;23.48;15.10;;;27.00;84.30;;;;;;5146441;27;20056;-48
2022/04/13 10:42:07;;;;;;;25.55;15.32;;;27.00;84.60;;;;;;5146535;27;20054;-46
2022/04/13 10:44:38;;;;;;;21.73;15.45;;;27.00;84.70;;;;;;5146336;27;20023;-47
2022/04/13 10:47:08;;;;;;;24.27;15.25;;;27.00;84.60;;;;;;5146365;27;20087;-49
2022/04/13 10:50:04;;;;;;;24.05;15.80;;;27.00;84.50;;;;;;5146001;27;20042;-51
2022/04/13 10:52:47;;;;;;;23.70;15.48;;;27.10;84.30;;;;;;5144104;27;20068;-46
2022/04/13 10:55:15;;;;;;;24.13;15.55;;;27.00;83.80;;;;;;5145988;27;20279;-50
2022/04/13 10:57:54;;;;;;;21.52;15.27;;;27.10;83.70;;;;;;5145830;27;20295;-52
2022/04/13 11:00:23;;;;;;;23.15;14.95;;;27.00;83.60;;;;;;5146152;27;20231;-53
2022/04/13 11:02:59;;;;;;;22.17;15.15;;;27.00;83.50;;;;;;5145822;27;20082;-53
2022/04/13 11:05:26;;;;;;;27.08;15.25;;;27.00;83.40;;;;;;5145605;27;20030;-51
2022/04/13 11:08:16;;;;;;;23.73;14.55;;;27.00;83.10;;;;;;5146448;27;20085;-50
2022/04/13 11:10:47;;;;;;;23.10;15.45;;;27.00;83.10;;;;;;5096446;27;20168;-50
2022/04/13 11:13:19;;;;;;;23.67;15.20;;;27.00;83.10;;;;;;5145459;27;20068;-48
2022/04/13 11:15:52;;;;;;;27.85;15.38;;;27.10;83.10;;;;;;5145221;27;20235;-51
2022/04/13 11:18:21;;;;;;;26.98;15.60;;;27.00;83.10;;;;;;5145658;27;20027;-50
2022/04/13 11:21:02;;;;;;;21.90;14.77;;;27.10;83.10;;;;;;5145288;27;20042;-49
2022/04/13 11:23:51;;;;;;;23.08;15.10;;;27.10;82.70;;;;;;5145258;27;20049;-53
2022/04/13 11:26:26;;;;;;;21.45;14.77;;;27.00;82.80;;;;;;5145121;27;20379;-52
2022/04/13 11:29:16;;;;;;;22.92;15.25;;;27.00;82.90;;;;;;5145500;27;20026;-49
2022/04/13 11:32:01;;;;;;;20.63;15.32;;;27.10;82.90;;;;;;5145309;27;20019;-46
2022/04/13 11:34:29;;;;;;;23.33;14.88;;;27.10;83.20;;;;;;5145532;27;20043;-51
2022/04/13 11:37:03;;;;;;;23.23;14.30;;;27.10;83.30;;;;;;5145568;27;20023;-47
2022/04/13 11:39:50;;;;;;;27.20;15.75;;;27.10;83.20;;;;;;5145478;28;20068;-54
2022/04/13 11:42:18;;;;;;;22.63;14.75;;;27.10;83.30;;;;;;5145382;28;20019;-52
2022/04/13 11:44:51;;;;;;;20.98;14.27;;;27.10;83.20;;;;;;5145118;28;20068;-49
2022/04/13 11:47:19;;;;;;;23.38;14.93;;;27.10;83.10;;;;;;5145279;28;20364;-49
2022/04/13 11:50:05;;;;;;;24.30;15.65;;;27.10;83.10;;;;;;5144833;28;20371;-49
2022/04/13 11:53:07;;;;;;;21.73;14.90;;;27.20;83.00;;;;;;5145186;28;20052;-50
2022/04/13 11:55:42;;;;;;;22.20;15.90;;;27.10;82.80;;;;;;5112633;28;20050;-46
2022/04/13 11:58:08;;;;;;;23.52;16.13;;;27.20;82.80;;;;;;5145298;28;20011;-55
2022/04/13 12:00:55;;;;;;;23.60;15.45;;;27.10;82.90;;;;;;5144822;28;20050;-45
2022/04/13 12:03:37;;;;;;;24.70;14.18;;;27.20;83.00;;;;;;5145836;28;20011;-48
2022/04/13 12:06:15;;;;;;;24.85;15.57;;;27.20;82.70;;;;;;5144662;28;20031;-51
2022/04/13 12:08:42;;;;;;;22.88;15.80;;;27.20;82.90;;;;;;5144731;28;20065;-50
2022/04/13 12:11:10;;;;;;;24.50;15.70;;;27.20;83.20;;;;;;5145168;28;20082;-49
2022/04/13 12:13:59;;;;;;;23.92;16.27;;;27.20;83.20;;;;;;5145099;28;20017;-51
2022/04/13 12:16:33;;;;;;;28.80;15.85;;;27.20;83.30;;;;;;5144648;28;20029;-49
2022/04/13 12:19:10;;;;;;;23.08;15.85;;;27.20;83.50;;;;;;5144713;28;20023;-54
2022/04/13 12:21:38;;;;;;;24.05;15.80;;;27.20;83.40;;;;;;5144656;28;20299;-53
2022/04/13 12:24:07;;;;;;;30.08;15.57;;;27.20;83.40;;;;;;5144467;28;20165;-53
2022/04/13 12:26:51;;;;;;;23.17;14.98;;;27.20;83.20;;;;;;5144574;28;20015;-53
2022/04/13 12:29:20;;;;;;;25.70;16.08;;;27.20;83.20;;;;;;5144246;28;20246;-58
2022/04/13 12:31:55;;;;;;;20.95;15.07;;;27.20;83.30;;;;;;5144441;28;20015;-55
2022/04/13 12:34:30;;;;;;;24.23;15.15;;;27.30;83.30;;;;;;5144554;28;20019;-53
2022/04/13 12:36:59;;;;;;;21.45;14.95;;;27.20;83.10;;;;;;5144783;28;20043;-54
2022/04/13 12:39:34;;;;;;;23.80;15.02;;;27.30;83.20;;;;;;5146309;27;20027;-53
2022/04/13 12:42:04;;;;;;;23.65;15.48;;;27.30;83.30;;;;;;5148216;27;20019;-58
2022/04/13 12:44:31;;;;;;;23.23;15.52;;;27.30;83.30;;;;;;5148174;27;20076;-56